Terminal Aerodrome Forecast
Issued by NWS

Home | Current Version | Previous Version | Text Only | Print | Product List | Glossary On
Versions: 1 2 3 4 5 6 7 8 9 10 11 12 13 14 15 16 17 18 19 20 21 22
489
FTUS46 KSTO 092349
TAFSMF
TAF
KSMF 092349Z 1000/1024 18008KT 6SM BR OVC040
      TEMPO 1001/1005 2SM BR OVC020
     FM100700 16010KT 4SM -RA BR OVC015
      TEMPO 1007/1011 1 1/2SM -RA OVC007
     FM101200 16015G25KT 4SM -RA BR OVC007
     FM102100 18012KT 2SM -RA BR OVC015=

USA.gov is the U.S. government's official web portal to all federal, state and local government web resources and services.